createdAt,value
2023-02-14T00:01:46.689Z,101339.19
2023-02-14T00:04:20.904Z,101337.50
2023-02-14T00:06:55.512Z,101342.53
2023-02-14T00:09:32.486Z,101337.13
2023-02-14T00:12:07.780Z,101335.34
2023-02-14T00:14:58.050Z,101326.53
2023-02-14T00:17:29.688Z,101326.41
2023-02-14T00:20:01.313Z,101325.44
2023-02-14T00:22:33.331Z,101320.34
2023-02-14T00:25:05.286Z,101321.13
2023-02-14T00:27:37.958Z,101326.94
2023-02-14T00:30:12.816Z,101325.84
2023-02-14T00:32:44.667Z,101331.00
2023-02-14T00:35:17.749Z,101336.94
2023-02-14T00:37:55.134Z,101336.69
2023-02-14T00:40:28.905Z,101334.00
2023-02-14T00:43:04.215Z,101326.97
2023-02-14T00:45:35.978Z,101327.81
2023-02-14T00:48:07.737Z,101325.91
2023-02-14T00:50:40.632Z,101326.50
2023-02-14T00:53:13.842Z,101328.94
2023-02-14T00:55:47.182Z,101329.72
2023-02-14T00:58:19.925Z,101320.09
2023-02-14T01:00:53.680Z,101319.25
2023-02-14T01:03:29.590Z,101328.28
2023-02-14T01:06:02.093Z,101322.91
2023-02-14T01:08:35.312Z,101329.28
2023-02-14T01:11:08.679Z,101327.81
2023-02-14T01:13:41.350Z,101333.84
2023-02-14T01:16:16.093Z,101329.44
2023-02-14T01:18:48.479Z,101320.44
2023-02-14T01:21:24.343Z,101320.34
2023-02-14T01:23:58.117Z,101315.97
2023-02-14T01:26:30.347Z,101314.09
2023-02-14T01:29:07.643Z,101316.56
2023-02-14T01:31:39.677Z,101321.63
2023-02-14T01:34:11.419Z,101318.41
2023-02-14T01:36:49.192Z,101313.06
2023-02-14T01:39:21.072Z,101311.28
2023-02-14T01:41:55.757Z,101301.91
2023-02-14T01:44:33.410Z,101314.25
2023-02-14T01:47:10.609Z,101304.44
2023-02-14T01:49:49.599Z,101300.66
2023-02-14T01:52:26.228Z,101305.38
2023-02-14T01:55:02.490Z,101308.97
2023-02-14T01:57:40.292Z,101308.22
2023-02-14T02:00:32.058Z,101305.09
2023-02-14T02:03:05.824Z,101304.72
2023-02-14T02:05:40.332Z,101298.03
2023-02-14T02:08:12.330Z,101299.19
2023-02-14T02:10:43.999Z,101300.44
2023-02-14T02:13:20.933Z,101299.19
2023-02-14T02:16:17.546Z,101298.63
2023-02-14T02:19:08.744Z,101305.13
2023-02-14T02:22:11.284Z,101296.03
2023-02-14T02:25:24.459Z,101299.16
2023-02-14T02:27:58.744Z,101296.38
2023-02-14T02:30:50.516Z,101297.06
2023-02-14T02:33:40.956Z,101292.59
2023-02-14T02:36:12.897Z,101291.66
2023-02-14T02:39:23.043Z,101282.34
2023-02-14T02:42:04.102Z,101285.63
2023-02-14T02:44:58.008Z,101285.41
2023-02-14T02:47:44.644Z,101278.47
2023-02-14T02:50:46.748Z,101282.34
2023-02-14T02:53:19.428Z,101279.13
2023-02-14T02:56:30.568Z,101276.47
2023-02-14T02:59:18.828Z,101286.19
2023-02-14T03:02:26.535Z,101271.25
2023-02-14T03:05:04.463Z,101271.94
2023-02-14T03:07:41.665Z,101272.53
2023-02-14T03:10:30.194Z,101277.25
2023-02-14T03:13:14.402Z,101276.44
2023-02-14T03:15:54.124Z,101280.97
2023-02-14T03:19:07.223Z,101282.59
2023-02-14T03:21:55.920Z,101287.75
2023-02-14T03:24:37.866Z,101286.44
2023-02-14T03:27:29.965Z,101275.28
2023-02-14T03:30:14.265Z,101280.81
2023-02-14T03:32:58.374Z,101289.16
2023-02-14T03:35:39.178Z,101285.84
2023-02-14T03:38:29.480Z,101282.78
2023-02-14T03:41:05.277Z,101276.97
2023-02-14T03:43:43.859Z,101286.50
2023-02-14T03:46:45.478Z,101281.81
2023-02-14T03:49:26.894Z,101286.53
2023-02-14T03:52:02.857Z,101295.84
2023-02-14T03:54:35.714Z,101285.13
2023-02-14T03:57:45.980Z,101284.13
2023-02-14T04:00:19.843Z,101283.59
2023-02-14T04:02:59.330Z,101279.13
2023-02-14T04:05:31.539Z,101278.97
2023-02-14T04:08:03.195Z,101277.97
2023-02-14T04:10:34.929Z,101282.94
2023-02-14T04:13:08.721Z,101278.75
2023-02-14T04:15:40.406Z,101276.00
2023-02-14T04:18:34.734Z,101275.09
2023-02-14T04:21:11.372Z,101278.03
2023-02-14T04:23:43.316Z,101275.75
2023-02-14T04:26:15.070Z,101268.72
2023-02-14T04:28:49.416Z,101262.06
2023-02-14T04:31:21.252Z,101258.16
2023-02-14T04:33:55.069Z,101256.84
2023-02-14T04:36:26.841Z,101253.13
2023-02-14T04:38:58.630Z,101258.94
2023-02-14T04:41:30.523Z,101254.56
2023-02-14T04:44:05.692Z,101251.09
2023-02-14T04:46:40.453Z,101248.25
2023-02-14T04:49:12.187Z,101244.63
2023-02-14T04:51:44.580Z,101245.38
2023-02-14T04:54:23.754Z,101242.00
2023-02-14T04:56:58.458Z,101245.88
2023-02-14T04:59:30.039Z,101241.91
2023-02-14T05:02:01.777Z,101248.00
2023-02-14T05:04:33.555Z,101236.50
2023-02-14T05:07:06.284Z,101241.28
2023-02-14T05:09:40.357Z,101244.34
2023-02-14T05:12:12.047Z,101245.47
2023-02-14T05:14:43.782Z,101246.72
2023-02-14T05:17:15.520Z,101246.63
2023-02-14T05:19:47.227Z,101248.94
2023-02-14T05:22:23.153Z,101246.06
2023-02-14T05:25:20.400Z,101247.41
2023-02-14T05:27:52.053Z,101238.47
2023-02-14T05:30:28.132Z,101244.53
2023-02-14T05:33:02.180Z,101238.38
2023-02-14T05:35:37.024Z,101241.25
2023-02-14T05:38:15.469Z,101239.50
2023-02-14T05:40:47.255Z,101243.69
2023-02-14T05:43:18.995Z,101247.16
2023-02-14T05:45:50.919Z,101245.22
2023-02-14T05:48:23.001Z,101245.38
2023-02-14T05:50:54.845Z,101253.16
2023-02-14T05:53:26.505Z,101251.41
2023-02-14T05:55:58.229Z,101257.28
2023-02-14T05:58:33.239Z,101248.59
2023-02-14T06:01:05.398Z,101249.25
2023-02-14T06:03:37.105Z,101250.09
2023-02-14T06:06:11.875Z,101256.44
2023-02-14T06:08:43.632Z,101257.38
2023-02-14T06:11:15.346Z,101258.28
2023-02-14T06:13:47.354Z,101253.91
2023-02-14T06:16:21.991Z,101266.06
2023-02-14T06:18:53.831Z,101274.84
2023-02-14T06:21:25.669Z,101275.53
2023-02-14T06:24:00.470Z,101278.03
2023-02-14T06:26:32.959Z,101284.97
2023-02-14T06:29:07.314Z,101282.47
2023-02-14T06:31:40.839Z,101280.66
2023-02-14T06:34:13.946Z,101285.16
2023-02-14T06:36:46.808Z,101278.22
2023-02-14T06:39:21.616Z,101283.47
2023-02-14T06:41:53.182Z,101268.69
2023-02-14T06:44:24.877Z,101275.63
2023-02-14T06:47:01.891Z,101278.22
2023-02-14T06:49:33.573Z,101270.38
2023-02-14T06:52:06.513Z,101278.16
2023-02-14T06:54:44.533Z,101278.03
2023-02-14T06:57:16.267Z,101274.69
2023-02-14T06:59:48.096Z,101277.38
2023-02-14T07:02:25.068Z,101281.69
2023-02-14T07:04:56.938Z,101284.13
2023-02-14T07:07:31.002Z,101277.03
2023-02-14T07:10:04.405Z,101282.28
2023-02-14T07:12:36.623Z,101272.91
2023-02-14T07:15:11.077Z,101276.13
2023-02-14T07:17:43.010Z,101268.94
2023-02-14T07:20:15.830Z,101273.19
2023-02-14T07:22:47.747Z,101265.25
2023-02-14T07:25:20.648Z,101268.69
2023-02-14T07:27:52.314Z,101261.59
2023-02-14T07:30:24.124Z,101265.84
2023-02-14T07:32:57.489Z,101268.34
2023-02-14T07:35:29.196Z,101266.69
2023-02-14T07:38:03.455Z,101265.66
2023-02-14T07:40:35.166Z,101259.56
2023-02-14T07:43:10.204Z,101256.78
2023-02-14T07:45:42.088Z,101258.38
2023-02-14T07:48:16.451Z,101256.59
2023-02-14T07:50:48.743Z,101250.38
2023-02-14T07:53:24.554Z,101249.25
2023-02-14T07:55:59.088Z,101256.00
2023-02-14T07:58:30.809Z,101254.34
2023-02-14T08:01:02.724Z,101253.31
2023-02-14T08:03:35.087Z,101251.38
2023-02-14T08:06:06.844Z,101249.50
2023-02-14T08:08:38.578Z,101253.13
2023-02-14T08:11:11.354Z,101255.31
2023-02-14T08:13:43.020Z,101257.00
2023-02-14T08:16:17.241Z,101259.69
2023-02-14T08:18:50.601Z,101257.16
2023-02-14T08:21:22.356Z,101258.19
2023-02-14T08:23:55.085Z,101255.56
2023-02-14T08:26:28.787Z,101259.63
2023-02-14T08:29:01.989Z,101255.47
2023-02-14T08:31:37.652Z,101261.56
2023-02-14T08:34:10.400Z,101258.09
2023-02-14T08:36:43.347Z,101254.38
2023-02-14T08:39:15.493Z,101258.41
2023-02-14T08:41:50.009Z,101260.84
2023-02-14T08:44:24.661Z,101257.31
2023-02-14T08:46:56.422Z,101252.84
2023-02-14T08:49:28.319Z,101250.88
2023-02-14T08:52:01.954Z,101260.41
2023-02-14T08:54:35.805Z,101254.97
2023-02-14T08:57:07.544Z,101252.47
2023-02-14T08:59:39.217Z,101254.97
2023-02-14T09:02:17.036Z,101254.06
2023-02-14T09:04:48.738Z,101257.38
2023-02-14T09:07:20.796Z,101260.28
2023-02-14T09:09:52.485Z,101255.19
2023-02-14T09:12:26.561Z,101253.06
2023-02-14T09:14:58.405Z,101259.91
2023-02-14T09:17:30.688Z,101251.84
2023-02-14T09:20:02.396Z,101262.91
2023-02-14T09:22:34.491Z,101256.50
2023-02-14T09:25:07.616Z,101257.91
2023-02-14T09:27:42.465Z,101256.78
2023-02-14T09:30:17.470Z,101268.06
2023-02-14T09:32:52.015Z,101260.06
2023-02-14T09:35:47.033Z,101265.16
2023-02-14T09:38:23.573Z,101260.47
2023-02-14T09:40:57.867Z,101264.66
2023-02-14T09:43:55.694Z,101258.31
2023-02-14T09:46:31.051Z,101257.47
2023-02-14T09:49:03.095Z,101254.66
2023-02-14T09:51:36.076Z,101252.63
2023-02-14T09:54:20.825Z,101257.75
2023-02-14T09:57:23.115Z,101259.16
2023-02-14T10:00:18.980Z,101253.44
2023-02-14T10:03:05.842Z,101257.56
2023-02-14T10:05:48.770Z,101263.47
2023-02-14T10:08:45.096Z,101259.91
2023-02-14T10:11:23.089Z,101261.69
2023-02-14T10:14:05.281Z,101257.28
2023-02-14T10:16:43.123Z,101263.19
2023-02-14T10:19:28.280Z,101255.94
2023-02-14T10:22:02.332Z,101257.19
2023-02-14T10:24:40.931Z,101259.72
2023-02-14T10:27:24.382Z,101252.31
2023-02-14T10:29:56.389Z,101264.13
2023-02-14T10:32:48.081Z,101264.84
2023-02-14T10:35:22.675Z,101264.28
2023-02-14T10:38:17.646Z,101267.59
2023-02-14T10:41:13.721Z,101264.97
2023-02-14T10:44:03.620Z,101270.69
2023-02-14T10:47:04.143Z,101271.72
2023-02-14T10:49:59.240Z,101266.41
2023-02-14T10:52:59.021Z,101258.13
2023-02-14T10:55:36.422Z,101258.97
2023-02-14T10:58:13.726Z,101269.56
2023-02-14T11:01:02.446Z,101266.94
2023-02-14T11:03:37.153Z,101264.78
2023-02-14T11:06:10.463Z,101261.50
2023-02-14T11:08:42.384Z,101258.47
2023-02-14T11:11:21.370Z,101258.19
2023-02-14T11:13:53.451Z,101253.13
2023-02-14T11:16:37.408Z,101251.34
2023-02-14T11:19:15.074Z,101256.97
2023-02-14T11:21:50.973Z,101250.94
2023-02-14T11:24:33.254Z,101255.88
2023-02-14T11:27:18.484Z,101253.00
2023-02-14T11:29:53.592Z,101249.16
2023-02-14T11:32:28.633Z,101249.16
2023-02-14T11:35:05.036Z,101249.06
2023-02-14T11:37:49.037Z,101241.97
2023-02-14T11:40:36.839Z,101237.78
2023-02-14T11:43:14.184Z,101235.41
2023-02-14T11:45:48.818Z,101234.91
2023-02-14T11:48:37.867Z,101226.72
2023-02-14T11:51:18.780Z,101223.06
2023-02-14T11:53:55.089Z,101223.63
2023-02-14T11:56:48.082Z,101221.78
2023-02-14T11:59:25.804Z,101216.22
2023-02-14T12:02:01.533Z,101213.19
2023-02-14T12:04:46.633Z,101221.38
2023-02-14T12:07:25.128Z,101218.13
2023-02-14T12:10:27.725Z,101207.63
2023-02-14T12:13:11.459Z,101209.28
2023-02-14T12:15:43.102Z,101212.53
2023-02-14T12:18:52.729Z,101206.88
2023-02-14T12:21:30.871Z,101201.91
2023-02-14T12:24:20.954Z,101200.84
2023-02-14T12:27:13.463Z,101196.91
2023-02-14T12:30:00.008Z,101184.50
2023-02-14T12:32:32.616Z,101184.09
2023-02-14T12:35:13.413Z,101180.00
2023-02-14T12:38:03.813Z,101186.53
2023-02-14T12:41:05.749Z,101190.59
2023-02-14T12:44:12.466Z,101179.84
2023-02-14T12:47:07.363Z,101180.69
2023-02-14T12:49:57.776Z,101178.06
2023-02-14T12:52:51.098Z,101177.03
2023-02-14T12:56:07.597Z,101172.50
2023-02-14T12:58:45.146Z,101172.09
2023-02-14T13:01:24.780Z,101167.47
2023-02-14T13:04:34.025Z,101173.69
2023-02-14T13:07:14.964Z,101164.88
2023-02-14T13:10:31.581Z,101162.69
2023-02-14T13:13:07.121Z,101158.50
2023-02-14T13:16:09.872Z,101160.13
2023-02-14T13:19:02.287Z,101161.34
2023-02-14T13:21:37.487Z,101159.81
2023-02-14T13:24:21.995Z,101159.50
2023-02-14T13:27:00.445Z,101155.50
2023-02-14T13:29:43.194Z,101162.38
2023-02-14T13:32:21.355Z,101151.31
2023-02-14T13:35:00.016Z,101146.06
2023-02-14T13:37:33.282Z,101147.19
2023-02-14T13:40:17.387Z,101146.34
2023-02-14T13:42:49.878Z,101141.28
2023-02-14T13:45:39.450Z,101140.75
2023-02-14T13:48:22.152Z,101136.94
2023-02-14T13:51:05.729Z,101139.88
2023-02-14T13:53:44.817Z,101139.47
2023-02-14T13:56:16.455Z,101137.19
2023-02-14T13:58:59.833Z,101140.44
2023-02-14T14:01:41.833Z,101144.25
2023-02-14T14:04:30.381Z,101133.94
2023-02-14T14:07:05.097Z,101149.81
2023-02-14T14:09:43.287Z,101139.59
2023-02-14T14:12:27.186Z,101137.72
2023-02-14T14:15:05.028Z,101139.09
2023-02-14T14:17:46.465Z,101137.63
2023-02-14T14:20:20.873Z,101136.66
2023-02-14T14:22:58.610Z,101137.50
2023-02-14T14:25:42.037Z,101134.34
2023-02-14T14:28:20.696Z,101133.84
2023-02-14T14:30:55.569Z,101131.44
2023-02-14T14:33:35.096Z,101130.72
2023-02-14T14:36:10.321Z,101134.91
2023-02-14T14:38:53.536Z,101129.56
2023-02-14T14:41:31.262Z,101118.63
2023-02-14T14:44:05.022Z,101123.66
2023-02-14T14:46:41.315Z,101128.63
2023-02-14T14:49:16.402Z,101121.88
2023-02-14T14:51:48.686Z,101114.53
2023-02-14T14:54:25.037Z,101117.34
2023-02-14T14:57:01.714Z,101116.91
2023-02-14T14:59:40.921Z,101119.09
2023-02-14T15:02:27.602Z,101117.09
2023-02-14T15:05:32.719Z,101102.38
2023-02-14T15:08:30.841Z,101105.50
2023-02-14T15:11:47.139Z,101101.09
2023-02-14T15:14:24.498Z,101103.47
2023-02-14T15:17:06.051Z,101093.09
2023-02-14T15:19:43.502Z,101094.00
2023-02-14T15:22:26.223Z,101092.03
2023-02-14T15:24:58.239Z,101086.47
2023-02-14T15:27:30.780Z,101088.69
2023-02-14T15:30:09.822Z,101085.06
2023-02-14T15:32:44.689Z,101090.31
2023-02-14T15:35:17.634Z,101093.22
2023-02-14T15:37:56.850Z,101097.63
2023-02-14T15:40:35.960Z,101096.50
2023-02-14T15:43:23.997Z,101101.84
2023-02-14T15:46:03.039Z,101104.78
2023-02-14T15:48:37.475Z,101098.78
2023-02-14T15:51:22.776Z,101096.25
2023-02-14T15:54:25.364Z,101104.41
2023-02-14T15:56:59.769Z,101103.13
2023-02-14T15:59:41.414Z,101101.00
2023-02-14T16:02:36.380Z,101107.38
2023-02-14T16:05:17.808Z,101099.78
2023-02-14T16:08:22.023Z,101104.56
2023-02-14T16:11:05.112Z,101101.97
2023-02-14T16:13:42.114Z,101100.38
2023-02-14T16:16:15.028Z,101098.88
2023-02-14T16:18:49.678Z,101100.09
2023-02-14T16:21:33.540Z,101094.13
2023-02-14T16:24:14.922Z,101088.09
2023-02-14T16:26:53.608Z,101095.22
2023-02-14T16:29:37.244Z,101095.31
2023-02-14T16:32:36.317Z,101087.34
2023-02-14T16:35:31.142Z,101100.56
2023-02-14T16:38:15.782Z,101101.69
2023-02-14T16:40:56.123Z,101099.25
2023-02-14T16:43:36.166Z,101097.38
2023-02-14T16:46:15.319Z,101092.69
2023-02-14T16:48:52.054Z,101094.34
2023-02-14T16:51:28.374Z,101096.97
2023-02-14T16:54:04.499Z,101103.19
2023-02-14T16:56:49.383Z,101096.56
2023-02-14T16:59:26.099Z,101100.94
2023-02-14T17:01:58.928Z,101095.78
2023-02-14T17:04:30.640Z,101085.22
2023-02-14T17:07:05.949Z,101082.38
2023-02-14T17:09:42.828Z,101082.22
2023-02-14T17:12:41.774Z,101083.88
2023-02-14T17:15:19.223Z,101086.50
2023-02-14T17:17:55.409Z,101086.88
2023-02-14T17:20:36.865Z,101088.56
2023-02-14T17:23:09.008Z,101092.69
2023-02-14T17:25:50.523Z,101086.69
2023-02-14T17:28:26.586Z,101082.38
2023-02-14T17:31:01.149Z,101084.91
2023-02-14T17:33:36.245Z,101078.00
2023-02-14T17:36:12.094Z,101078.91
2023-02-14T17:38:43.917Z,101077.16
2023-02-14T17:41:15.652Z,101075.56
2023-02-14T17:43:49.588Z,101086.16
2023-02-14T17:46:24.580Z,101083.63
2023-02-14T17:48:57.094Z,101083.53
2023-02-14T17:51:30.193Z,101083.53
2023-02-14T17:54:01.947Z,101079.97
2023-02-14T17:56:35.676Z,101091.41
2023-02-14T17:59:07.384Z,101085.22
2023-02-14T18:01:39.181Z,101092.78
2023-02-14T18:04:10.986Z,101089.53
2023-02-14T18:06:43.164Z,101093.38
2023-02-14T18:09:18.722Z,101086.53
2023-02-14T18:11:50.597Z,101092.69
2023-02-14T18:14:22.638Z,101085.88
2023-02-14T18:16:54.386Z,101078.47
2023-02-14T18:19:26.131Z,101080.56
2023-02-14T18:22:00.579Z,101072.84
2023-02-14T18:24:32.524Z,101078.13
2023-02-14T18:27:06.096Z,101068.09
2023-02-14T18:29:39.382Z,101070.25
2023-02-14T18:32:12.207Z,101069.69
2023-02-14T18:34:43.923Z,101069.84
2023-02-14T18:37:17.192Z,101069.78
2023-02-14T18:39:48.951Z,101069.69
2023-02-14T18:42:24.851Z,101071.28
2023-02-14T18:44:56.897Z,101072.31
2023-02-14T18:47:28.626Z,101064.72
2023-02-14T18:50:06.708Z,101064.91
2023-02-14T18:52:39.006Z,101065.19
2023-02-14T18:55:11.125Z,101067.06
2023-02-14T18:57:42.839Z,101066.97
2023-02-14T19:00:19.453Z,101054.16
2023-02-14T19:02:54.373Z,101062.28
2023-02-14T19:05:26.286Z,101053.13
2023-02-14T19:07:59.057Z,101057.50
2023-02-14T19:10:31.235Z,101055.81
2023-02-14T19:13:03.325Z,101062.00
2023-02-14T19:15:35.018Z,101063.75
2023-02-14T19:18:06.835Z,101056.75
2023-02-14T19:20:38.563Z,101059.75
2023-02-14T19:23:10.198Z,101060.66
2023-02-14T19:25:43.143Z,101058.88
2023-02-14T19:28:21.001Z,101058.81
2023-02-14T19:30:53.259Z,101056.09
2023-02-14T19:33:25.728Z,101066.03
2023-02-14T19:36:07.405Z,101068.63
2023-02-14T19:38:46.798Z,101063.75
2023-02-14T19:41:31.658Z,101065.81
2023-02-14T19:44:06.660Z,101070.28
2023-02-14T19:46:38.474Z,101064.84
2023-02-14T19:49:16.341Z,101065.81
2023-02-14T19:51:49.454Z,101064.69
2023-02-14T19:54:28.184Z,101073.19
2023-02-14T19:57:00.004Z,101073.19
2023-02-14T19:59:32.538Z,101068.16
2023-02-14T20:02:12.605Z,101071.22
2023-02-14T20:04:44.620Z,101068.88
2023-02-14T20:07:19.299Z,101070.72
2023-02-14T20:09:50.992Z,101065.69
2023-02-14T20:12:22.746Z,101065.78
2023-02-14T20:14:54.968Z,101072.00
2023-02-14T20:17:26.825Z,101065.13
2023-02-14T20:20:01.298Z,101065.19
2023-02-14T20:22:38.191Z,101061.81
2023-02-14T20:25:11.205Z,101060.91
2023-02-14T20:27:43.022Z,101063.59
2023-02-14T20:30:20.771Z,101055.09
2023-02-14T20:32:55.510Z,101048.16
2023-02-14T20:35:27.570Z,101046.41
2023-02-14T20:37:59.278Z,101050.69
2023-02-14T20:40:43.464Z,101041.81
2023-02-14T20:43:15.998Z,101050.34
2023-02-14T20:45:48.225Z,101046.97
2023-02-14T20:48:20.016Z,101041.66
2023-02-14T20:50:51.799Z,101038.34
2023-02-14T20:53:24.723Z,101041.34
2023-02-14T20:55:59.594Z,101040.31
2023-02-14T20:58:39.693Z,101041.16
2023-02-14T21:01:23.415Z,101035.84
2023-02-14T21:03:55.522Z,101035.91
2023-02-14T21:06:30.446Z,101019.28
2023-02-14T21:09:05.209Z,101026.22
2023-02-14T21:11:36.903Z,101030.13
2023-02-14T21:14:12.147Z,101029.94
2023-02-14T21:16:44.638Z,101025.81
2023-02-14T21:19:17.639Z,101025.72
2023-02-14T21:21:49.376Z,101026.47
2023-02-14T21:24:21.229Z,101028.25
2023-02-14T21:26:52.920Z,101024.69
2023-02-14T21:29:25.669Z,101018.53
2023-02-14T21:31:57.652Z,101023.75
2023-02-14T21:34:29.573Z,101024.44
2023-02-14T21:37:01.332Z,101016.59
2023-02-14T21:39:35.741Z,101017.59
2023-02-14T21:42:11.981Z,101009.00
2023-02-14T21:45:03.300Z,101003.59
2023-02-14T21:47:44.864Z,101001.91
2023-02-14T21:50:31.690Z,100997.44
2023-02-14T21:53:03.729Z,101009.38
2023-02-14T21:55:38.493Z,100993.59
2023-02-14T21:58:10.064Z,100992.00
2023-02-14T22:00:48.742Z,100999.69
2023-02-14T22:03:27.218Z,100997.22
2023-02-14T22:06:07.015Z,100997.16
2023-02-14T22:08:42.645Z,100991.91
2023-02-14T22:11:18.607Z,100999.75
2023-02-14T22:13:50.266Z,100992.75
2023-02-14T22:16:23.687Z,100993.84
2023-02-14T22:18:55.540Z,100992.19
2023-02-14T22:21:33.463Z,100997.59
2023-02-14T22:24:08.048Z,100997.50
2023-02-14T22:26:43.063Z,100991.44
2023-02-14T22:29:17.959Z,100999.09
2023-02-14T22:31:49.574Z,100994.44
2023-02-14T22:34:21.896Z,100989.09
2023-02-14T22:36:53.556Z,100993.31
2023-02-14T22:39:50.205Z,100993.88
2023-02-14T22:42:21.778Z,100985.19
2023-02-14T22:44:53.413Z,100983.50
2023-02-14T22:47:25.237Z,100979.22
2023-02-14T22:49:56.836Z,100980.22
2023-02-14T22:52:37.241Z,100975.16
2023-02-14T22:55:08.727Z,100972.91
2023-02-14T22:57:40.271Z,100977.41
2023-02-14T23:00:14.610Z,100970.56
2023-02-14T23:02:46.683Z,100970.28
2023-02-14T23:05:21.559Z,100970.13
2023-02-14T23:07:53.543Z,100972.38
2023-02-14T23:10:25.115Z,100970.69
2023-02-14T23:13:19.052Z,100963.75
2023-02-14T23:16:12.385Z,100963.13
2023-02-14T23:19:02.743Z,100962.72
2023-02-14T23:21:52.899Z,100963.84
2023-02-14T23:24:24.636Z,100958.91
2023-02-14T23:26:56.334Z,100960.38
2023-02-14T23:29:32.301Z,100965.53
2023-02-14T23:32:07.580Z,100963.19
2023-02-14T23:34:40.631Z,100958.13
2023-02-14T23:37:12.555Z,100959.91
2023-02-14T23:39:44.178Z,100957.38
2023-02-14T23:42:16.127Z,100945.06
2023-02-14T23:44:50.812Z,100942.91
2023-02-14T23:47:22.502Z,100941.97
2023-02-14T23:49:54.167Z,100947.88
2023-02-14T23:52:28.538Z,100950.41
2023-02-14T23:55:00.219Z,100943.31
2023-02-14T23:57:31.773Z,100940.41
